createdAt,value
2022-09-10T00:01:30.770Z,100120.34
2022-09-10T00:03:59.239Z,100122.97
2022-09-10T00:06:28.405Z,100116.91
2022-09-10T00:08:58.523Z,100113.50
2022-09-10T00:11:28.638Z,100106.59
2022-09-10T00:13:58.060Z,100111.97
2022-09-10T00:16:28.388Z,100113.78
2022-09-10T00:18:58.294Z,100122.69
2022-09-10T00:21:26.647Z,100114.94
2022-09-10T00:23:55.163Z,100115.94
2022-09-10T00:26:25.961Z,100108.97
2022-09-10T00:28:55.381Z,100107.25
2022-09-10T00:31:24.238Z,100118.59
2022-09-10T00:33:53.349Z,100126.56
2022-09-10T00:36:23.435Z,100119.59
2022-09-10T00:38:52.652Z,100117.81
2022-09-10T00:41:21.521Z,100116.06
2022-09-10T00:43:50.287Z,100115.94
2022-09-10T00:46:43.315Z,100110.59
2022-09-10T00:49:23.059Z,100106.91
2022-09-10T00:51:53.318Z,100119.13
2022-09-10T00:54:24.855Z,100121.84
2022-09-10T00:56:55.114Z,100118.22
2022-09-10T00:59:27.296Z,100126.88
2022-09-10T01:01:56.494Z,100120.72
2022-09-10T01:04:24.832Z,100122.38
2022-09-10T01:06:54.590Z,100117.00
2022-09-10T01:09:24.598Z,100116.75
2022-09-10T01:12:10.794Z,100118.25
2022-09-10T01:14:39.082Z,100121.47
2022-09-10T01:17:15.239Z,100114.25
2022-09-10T01:20:02.503Z,100117.59
2022-09-10T01:22:37.016Z,100124.28
2022-09-10T01:25:15.286Z,100123.97
2022-09-10T01:27:45.994Z,100120.13
2022-09-10T01:30:21.876Z,100122.47
2022-09-10T01:33:11.288Z,100116.97
2022-09-10T01:35:50.704Z,100117.59
2022-09-10T01:38:26.254Z,100112.81
2022-09-10T01:40:55.860Z,100117.66
2022-09-10T01:43:26.017Z,100118.03
2022-09-10T01:46:20.016Z,100118.38
2022-09-10T01:48:50.400Z,100116.03
2022-09-10T01:51:37.678Z,100117.22
2022-09-10T01:54:26.002Z,100119.53
2022-09-10T01:57:04.837Z,100121.00
2022-09-10T01:59:44.672Z,100117.84
2022-09-10T02:02:17.809Z,100123.56
2022-09-10T02:04:48.274Z,100119.84
2022-09-10T02:07:18.681Z,100127.38
2022-09-10T02:09:47.247Z,100123.06
2022-09-10T02:12:20.263Z,100121.88
2022-09-10T02:15:09.664Z,100123.38
2022-09-10T02:18:07.440Z,100135.09
2022-09-10T02:20:35.693Z,100126.91
2022-09-10T02:23:05.919Z,100130.53
2022-09-10T02:25:35.553Z,100129.84
2022-09-10T02:28:05.267Z,100130.47
2022-09-10T02:30:33.929Z,100126.31
2022-09-10T02:33:02.277Z,100132.63
2022-09-10T02:35:31.954Z,100136.34
2022-09-10T02:38:02.547Z,100132.41
2022-09-10T02:40:32.357Z,100125.06
2022-09-10T02:43:00.583Z,100128.91
2022-09-10T02:45:30.571Z,100132.53
2022-09-10T02:47:59.465Z,100129.53
2022-09-10T02:50:28.169Z,100126.59
2022-09-10T02:52:58.608Z,100127.00
2022-09-10T02:55:27.143Z,100121.03
2022-09-10T02:57:56.208Z,100123.13
2022-09-10T03:00:25.026Z,100116.63
2022-09-10T03:02:53.582Z,100122.13
2022-09-10T03:05:22.952Z,100127.25
2022-09-10T03:07:52.053Z,100129.84
2022-09-10T03:10:21.479Z,100126.47
2022-09-10T03:12:50.053Z,100117.28
2022-09-10T03:15:21.136Z,100121.88
2022-09-10T03:17:51.674Z,100127.88
2022-09-10T03:20:23.705Z,100129.09
2022-09-10T03:22:52.346Z,100129.84
2022-09-10T03:25:20.779Z,100135.53
2022-09-10T03:27:49.153Z,100135.88
2022-09-10T03:30:17.460Z,100132.06
2022-09-10T03:32:45.634Z,100144.47
2022-09-10T03:35:16.555Z,100144.50
2022-09-10T03:37:45.068Z,100142.00
2022-09-10T03:40:13.314Z,100140.34
2022-09-10T03:42:41.862Z,100145.81
2022-09-10T03:45:11.724Z,100143.06
2022-09-10T03:47:41.035Z,100145.50
2022-09-10T03:50:09.763Z,100142.56
2022-09-10T03:52:38.084Z,100147.53
2022-09-10T03:55:06.892Z,100149.63
2022-09-10T03:57:35.144Z,100146.41
2022-09-10T04:00:03.955Z,100148.34
2022-09-10T04:02:43.067Z,100148.09
2022-09-10T04:05:13.324Z,100149.81
2022-09-10T04:07:41.656Z,100144.06
2022-09-10T04:10:10.387Z,100147.75
2022-09-10T04:12:38.644Z,100141.56
2022-09-10T04:15:07.380Z,100154.84
2022-09-10T04:17:35.712Z,100153.53
2022-09-10T04:20:04.703Z,100152.50
2022-09-10T04:22:35.281Z,100152.75
2022-09-10T04:25:03.791Z,100150.94
2022-09-10T04:27:32.624Z,100143.53
2022-09-10T04:30:01.532Z,100151.81
2022-09-10T04:32:29.871Z,100159.91
2022-09-10T04:34:59.853Z,100150.34
2022-09-10T04:37:28.563Z,100147.91
2022-09-10T04:39:57.170Z,100152.03
2022-09-10T04:42:25.796Z,100140.50
2022-09-10T04:44:55.075Z,100135.78
2022-09-10T04:47:23.870Z,100147.28
2022-09-10T04:49:53.340Z,100141.13
2022-09-10T04:52:23.435Z,100137.47
2022-09-10T04:54:53.322Z,100137.44
2022-09-10T04:57:21.642Z,100131.59
2022-09-10T04:59:49.849Z,100131.59
2022-09-10T05:02:19.338Z,100132.59
2022-09-10T05:04:51.301Z,100128.91
2022-09-10T05:07:19.556Z,100125.81
2022-09-10T05:09:47.850Z,100129.91
2022-09-10T05:12:20.567Z,100122.09
2022-09-10T05:14:49.768Z,100123.56
2022-09-10T05:17:18.366Z,100128.50
2022-09-10T05:19:46.487Z,100126.78
2022-09-10T05:22:14.918Z,100127.75
2022-09-10T05:24:44.990Z,100122.63
2022-09-10T05:27:13.455Z,100126.59
2022-09-10T05:29:41.606Z,100119.22
2022-09-10T05:32:11.234Z,100114.91
2022-09-10T05:34:40.744Z,100120.19
2022-09-10T05:37:09.651Z,100114.75
2022-09-10T05:39:38.214Z,100119.13
2022-09-10T05:42:06.997Z,100126.75
2022-09-10T05:44:38.800Z,100123.84
2022-09-10T05:47:07.388Z,100122.09
2022-09-10T05:49:35.771Z,100121.28
2022-09-10T05:52:04.828Z,100114.41
2022-09-10T05:54:33.818Z,100120.38
2022-09-10T05:57:02.447Z,100116.88
2022-09-10T05:59:32.134Z,100114.06
2022-09-10T06:02:00.451Z,100103.19
2022-09-10T06:04:30.440Z,100108.28
2022-09-10T06:06:59.293Z,100105.59
2022-09-10T06:09:27.646Z,100109.44
2022-09-10T06:12:07.343Z,100113.66
2022-09-10T06:14:36.861Z,100120.88
2022-09-10T06:17:05.452Z,100109.88
2022-09-10T06:19:34.194Z,100111.72
2022-09-10T06:22:02.669Z,100106.34
2022-09-10T06:24:34.967Z,100108.03
2022-09-10T06:27:03.241Z,100111.41
2022-09-10T06:29:37.399Z,100100.94
2022-09-10T06:32:06.911Z,100113.06
2022-09-10T06:34:36.548Z,100108.94
2022-09-10T06:37:06.775Z,100111.59
2022-09-10T06:39:38.298Z,100116.13
2022-09-10T06:42:07.945Z,100118.13
2022-09-10T06:44:54.615Z,100107.38
2022-09-10T06:50:38.345Z,100106.41
2022-09-10T06:53:07.655Z,100108.22
2022-09-10T06:55:36.226Z,100101.81
2022-09-10T06:58:04.892Z,100102.50
2022-09-10T07:00:34.176Z,100103.44
2022-09-10T07:03:03.866Z,100092.00
2022-09-10T07:05:36.030Z,100093.75
2022-09-10T07:08:06.098Z,100089.13
2022-09-10T07:10:34.998Z,100096.03
2022-09-10T07:13:03.183Z,100095.97
2022-09-10T07:15:32.580Z,100090.09
2022-09-10T07:18:01.896Z,100090.88
2022-09-10T07:20:31.008Z,100091.69
2022-09-10T07:23:00.215Z,100087.38
2022-09-10T07:25:30.128Z,100082.72
2022-09-10T07:28:04.943Z,100078.84
2022-09-10T07:30:36.724Z,100089.31
2022-09-10T07:33:05.304Z,100085.09
2022-09-10T07:35:37.469Z,100084.25
2022-09-10T07:38:07.771Z,100083.19
2022-09-10T07:40:40.975Z,100079.19
2022-09-10T07:43:10.517Z,100081.03
2022-09-10T07:45:40.784Z,100080.31
2022-09-10T07:48:12.656Z,100075.88
2022-09-10T07:50:41.671Z,100071.81
2022-09-10T07:53:12.464Z,100066.34
2022-09-10T07:55:40.686Z,100067.63
2022-09-10T07:58:11.004Z,100066.63
2022-09-10T08:00:43.678Z,100065.81
2022-09-10T08:03:12.510Z,100061.81
2022-09-10T08:05:41.630Z,100058.84
2022-09-10T08:08:11.253Z,100061.66
2022-09-10T08:10:40.907Z,100061.84
2022-09-10T08:13:10.899Z,100060.41
2022-09-10T08:15:45.387Z,100044.75
2022-09-10T08:18:14.474Z,100040.75
2022-09-10T08:20:43.051Z,100048.97
2022-09-10T08:23:11.517Z,100050.97
2022-09-10T08:25:39.843Z,100049.81
2022-09-10T08:28:09.210Z,100052.59
2022-09-10T08:30:38.236Z,100048.44
2022-09-10T08:33:06.949Z,100050.25
2022-09-10T08:35:36.352Z,100050.84
2022-09-10T08:38:04.639Z,100048.25
2022-09-10T08:40:33.465Z,100046.34
2022-09-10T08:43:02.485Z,100041.47
2022-09-10T08:45:33.509Z,100042.63
2022-09-10T08:48:07.803Z,100039.97
2022-09-10T08:50:50.701Z,100047.72
2022-09-10T08:53:23.713Z,100040.69
2022-09-10T08:55:53.837Z,100038.56
2022-09-10T08:58:26.475Z,100033.06
2022-09-10T09:00:58.679Z,100033.63
2022-09-10T09:03:34.605Z,100026.84
2022-09-10T09:06:03.651Z,100029.81
2022-09-10T09:08:43.209Z,100028.09
2022-09-10T09:11:30.118Z,100020.63
2022-09-10T09:14:04.484Z,100025.94
2022-09-10T09:16:48.036Z,100024.88
2022-09-10T09:19:32.304Z,100023.75
2022-09-10T09:22:23.947Z,100019.94
2022-09-10T09:24:58.977Z,100023.75
2022-09-10T09:27:30.783Z,100013.25
2022-09-10T09:30:02.646Z,100010.00
2022-09-10T09:32:38.019Z,100017.03
2022-09-10T09:35:24.792Z,100010.59
2022-09-10T09:38:17.340Z,100011.53
2022-09-10T09:40:50.439Z,100004.72
2022-09-10T09:43:24.613Z,100003.25
2022-09-10T09:45:55.393Z,100008.66
2022-09-10T09:48:33.125Z,100004.16
2022-09-10T09:51:02.337Z,100002.34
2022-09-10T09:53:31.766Z,100007.44
2022-09-10T09:56:01.576Z,100000.13
2022-09-10T09:58:31.135Z,100000.63
2022-09-10T10:01:08.892Z,100003.19
2022-09-10T10:03:59.421Z,99995.84
2022-09-10T10:06:31.938Z,99999.25
2022-09-10T10:09:08.282Z,99985.81
2022-09-10T10:11:41.606Z,99985.72
2022-09-10T10:14:32.934Z,99991.38
2022-09-10T10:17:01.688Z,99984.00
2022-09-10T10:19:30.083Z,99980.16
2022-09-10T10:22:00.714Z,99976.19
2022-09-10T10:24:33.627Z,99970.41
2022-09-10T10:27:01.897Z,99971.84
2022-09-10T10:29:30.048Z,99968.91
2022-09-10T10:32:01.551Z,99967.66
2022-09-10T10:34:32.018Z,99966.41
2022-09-10T10:37:15.357Z,99966.56
2022-09-10T10:40:04.430Z,99960.66
2022-09-10T10:42:39.628Z,99963.16
2022-09-10T10:45:20.153Z,99960.94
2022-09-10T10:47:55.278Z,99969.69
2022-09-10T10:50:34.277Z,99964.03
2022-09-10T10:53:21.903Z,99967.84
2022-09-10T10:56:02.658Z,99962.47
2022-09-10T10:58:41.434Z,99956.13
2022-09-10T11:01:26.563Z,99961.75
2022-09-10T11:04:13.733Z,99959.38
2022-09-10T11:06:44.649Z,99956.69
2022-09-10T11:09:45.069Z,99954.72
2022-09-10T11:12:17.728Z,99959.50
2022-09-10T11:14:45.997Z,99954.16
2022-09-10T11:17:35.719Z,99952.91
2022-09-10T11:20:28.414Z,99950.34
2022-09-10T11:23:06.877Z,99947.97
2022-09-10T11:25:38.679Z,99948.78
2022-09-10T11:28:16.320Z,99945.97
2022-09-10T11:30:48.982Z,99950.50
2022-09-10T11:33:28.457Z,99944.44
2022-09-10T11:36:08.901Z,99945.13
2022-09-10T11:38:59.614Z,99945.00
2022-09-10T11:41:30.814Z,99940.22
2022-09-10T11:44:36.362Z,99948.97
2022-09-10T11:47:05.069Z,99946.84
2022-09-10T11:49:54.053Z,99942.03
2022-09-10T11:52:24.151Z,99941.59
2022-09-10T11:54:53.162Z,99934.38
2022-09-10T11:57:33.914Z,99945.91
2022-09-10T12:00:18.343Z,99936.75
2022-09-10T12:03:14.001Z,99940.22
2022-09-10T12:05:43.154Z,99938.25
2022-09-10T12:08:18.205Z,99933.03
2022-09-10T12:10:54.133Z,99935.84
2022-09-10T12:13:23.274Z,99928.06
2022-09-10T12:15:54.124Z,99930.06
2022-09-10T12:18:29.080Z,99931.63
2022-09-10T12:21:00.340Z,99924.97
2022-09-10T12:23:31.209Z,99921.44
2022-09-10T12:25:59.517Z,99927.22
2022-09-10T12:28:42.913Z,99923.09
2022-09-10T12:31:15.893Z,99921.81
2022-09-10T12:33:47.091Z,99924.75
2022-09-10T12:36:35.381Z,99920.66
2022-09-10T12:39:22.121Z,99919.25
2022-09-10T12:41:53.901Z,99916.41
2022-09-10T12:44:25.698Z,99924.22
2022-09-10T12:47:12.683Z,99917.03
2022-09-10T12:49:56.540Z,99915.25
2022-09-10T12:52:27.491Z,99914.47
2022-09-10T12:55:02.907Z,99912.00
2022-09-10T12:57:37.419Z,99912.56
2022-09-10T13:00:22.817Z,99907.66
2022-09-10T13:02:54.322Z,99907.00
2022-09-10T13:05:26.471Z,99903.78
2022-09-10T13:08:00.227Z,99905.91
2022-09-10T13:10:29.855Z,99903.47
2022-09-10T13:13:01.466Z,99899.13
2022-09-10T13:15:32.293Z,99900.25
2022-09-10T13:18:00.718Z,99903.31
2022-09-10T13:20:32.270Z,99897.25
2022-09-10T13:23:04.685Z,99897.50
2022-09-10T13:25:37.651Z,99899.06
2022-09-10T13:28:26.295Z,99891.41
2022-09-10T13:31:10.954Z,99889.91
2022-09-10T13:33:54.256Z,99891.16
2022-09-10T13:36:43.977Z,99890.50
2022-09-10T13:39:15.132Z,99890.47
2022-09-10T13:41:43.436Z,99890.41
2022-09-10T13:44:34.416Z,99886.72
2022-09-10T13:47:10.917Z,99886.91
2022-09-10T13:49:53.781Z,99889.94
2022-09-10T13:52:41.363Z,99884.53
2022-09-10T13:55:09.717Z,99881.06
2022-09-10T13:57:42.263Z,99888.09
2022-09-10T14:00:13.508Z,99890.53
2022-09-10T14:02:46.372Z,99891.06
2022-09-10T14:05:34.551Z,99886.19
2022-09-10T14:08:08.454Z,99888.75
2022-09-10T14:10:39.323Z,99888.75
2022-09-10T14:13:10.041Z,99886.19
2022-09-10T14:15:40.122Z,99884.91
2022-09-10T14:18:10.221Z,99890.72
2022-09-10T14:20:40.185Z,99889.00
2022-09-10T14:23:13.533Z,99892.69
2022-09-10T14:25:43.392Z,99894.47
2022-09-10T14:28:17.692Z,99886.25
2022-09-10T14:30:49.826Z,99886.72
2022-09-10T14:33:34.414Z,99882.78
2022-09-10T14:36:22.504Z,99885.53
2022-09-10T14:39:20.656Z,99887.84
2022-09-10T14:41:50.069Z,99889.47
2022-09-10T14:44:27.263Z,99883.88
2022-09-10T14:47:02.703Z,99889.09
2022-09-10T14:49:34.786Z,99890.06
2022-09-10T14:52:04.287Z,99884.38
2022-09-10T14:54:33.666Z,99885.44
2022-09-10T14:57:06.045Z,99894.59
2022-09-10T14:59:34.357Z,99891.38
2022-09-10T15:02:03.713Z,99888.91
2022-09-10T15:04:32.542Z,99888.34
2022-09-10T15:07:01.488Z,99885.31
2022-09-10T15:09:30.078Z,99885.88
2022-09-10T15:12:04.106Z,99890.41
2022-09-10T15:14:33.498Z,99880.97
2022-09-10T15:17:01.754Z,99890.03
2022-09-10T15:19:30.281Z,99880.75
2022-09-10T15:21:58.726Z,99882.06
2022-09-10T15:24:27.006Z,99876.25
2022-09-10T15:26:57.386Z,99877.47
2022-09-10T15:29:26.927Z,99877.00
2022-09-10T15:32:00.112Z,99878.97
2022-09-10T15:34:28.847Z,99874.69
2022-09-10T15:36:56.910Z,99876.69
2022-09-10T15:39:25.216Z,99872.31
2022-09-10T15:41:53.326Z,99878.50
2022-09-10T15:44:23.366Z,99872.78
2022-09-10T15:46:51.965Z,99873.22
2022-09-10T15:49:20.145Z,99865.75
2022-09-10T15:51:48.518Z,99860.72
2022-09-10T15:54:16.868Z,99864.47
2022-09-10T15:56:45.414Z,99853.31
2022-09-10T15:59:15.286Z,99856.13
2022-09-10T16:01:44.057Z,99843.00
2022-09-10T16:04:12.378Z,99844.88
2022-09-10T16:06:41.506Z,99841.56
2022-09-10T16:09:11.489Z,99835.50
2022-09-10T16:11:40.749Z,99839.13
2022-09-10T16:14:11.886Z,99840.25
2022-09-10T16:16:41.727Z,99830.44
2022-09-10T16:19:11.766Z,99828.06
2022-09-10T16:21:40.102Z,99817.56
2022-09-10T16:24:08.854Z,99818.41
2022-09-10T16:26:38.795Z,99811.59
2022-09-10T16:29:12.795Z,99816.22
2022-09-10T16:31:41.221Z,99811.19
2022-09-10T16:34:11.605Z,99807.00
2022-09-10T16:36:40.413Z,99805.47
2022-09-10T16:39:12.926Z,99796.78
2022-09-10T16:41:42.043Z,99804.91
2022-09-10T16:44:11.787Z,99797.16
2022-09-10T16:46:40.273Z,99801.66
2022-09-10T16:49:10.787Z,99785.72
2022-09-10T16:51:40.055Z,99790.72
2022-09-10T16:54:08.538Z,99787.75
2022-09-10T16:56:41.387Z,99785.88
2022-09-10T16:59:16.828Z,99787.69
2022-09-10T17:01:49.007Z,99786.75
2022-09-10T17:04:25.990Z,99794.41
2022-09-10T17:06:57.069Z,99784.44
2022-09-10T17:09:25.756Z,99784.44
2022-09-10T17:11:54.368Z,99787.75
2022-09-10T17:14:22.733Z,99789.44
2022-09-10T17:16:51.158Z,99788.75
2022-09-10T17:19:21.249Z,99781.19
2022-09-10T17:21:51.967Z,99784.94
2022-09-10T17:24:21.616Z,99786.75
2022-09-10T17:26:50.437Z,99788.41
2022-09-10T17:29:20.671Z,99783.91
2022-09-10T17:31:49.279Z,99783.06
2022-09-10T17:34:17.677Z,99787.41
2022-09-10T17:36:47.165Z,99784.78
2022-09-10T17:39:15.968Z,99781.78
2022-09-10T17:41:45.482Z,99782.53
2022-09-10T17:44:14.268Z,99779.72
2022-09-10T17:46:43.287Z,99782.28
2022-09-10T17:49:13.939Z,99774.44
2022-09-10T17:51:42.848Z,99777.84
2022-09-10T17:54:11.420Z,99777.84
2022-09-10T17:56:39.941Z,99776.13
2022-09-10T17:59:08.128Z,99774.59
2022-09-10T18:01:42.006Z,99766.78
2022-09-10T18:04:13.343Z,99768.66
2022-09-10T18:06:41.529Z,99767.03
2022-09-10T18:09:10.440Z,99762.97
2022-09-10T18:11:40.648Z,99763.38
2022-09-10T18:14:09.688Z,99769.97
2022-09-10T18:16:38.552Z,99772.00
2022-09-10T18:19:14.443Z,99770.56
2022-09-10T18:21:43.188Z,99774.63
2022-09-10T18:24:17.927Z,99770.53
2022-09-10T18:26:47.672Z,99762.22
2022-09-10T18:29:18.497Z,99758.97
2022-09-10T18:31:51.748Z,99749.59
2022-09-10T18:34:23.908Z,99757.50
2022-09-10T18:36:55.924Z,99758.28
2022-09-10T18:39:24.938Z,99749.41
2022-09-10T18:41:53.564Z,99747.72
2022-09-10T18:44:23.503Z,99746.03
2022-09-10T18:46:53.428Z,99748.72
2022-09-10T18:49:23.823Z,99743.44
2022-09-10T18:51:52.883Z,99740.91
2022-09-10T18:54:21.845Z,99733.06
2022-09-10T18:56:50.269Z,99731.34
2022-09-10T18:59:24.062Z,99733.31
2022-09-10T19:01:53.596Z,99730.69
2022-09-10T19:04:24.521Z,99743.88
2022-09-10T19:06:53.249Z,99738.16
2022-09-10T19:09:25.492Z,99735.94
2022-09-10T19:11:54.773Z,99732.50
2022-09-10T19:14:30.525Z,99739.84
2022-09-10T19:16:59.923Z,99736.59
2022-09-10T19:19:29.248Z,99736.91
2022-09-10T19:22:04.027Z,99737.25
2022-09-10T19:24:53.510Z,99734.69
2022-09-10T19:27:22.011Z,99733.06
2022-09-10T19:29:50.889Z,99728.19
2022-09-10T19:32:20.368Z,99725.47
2022-09-10T19:34:52.272Z,99728.88
2022-09-10T19:37:21.529Z,99722.06
2022-09-10T19:39:49.965Z,99709.81
2022-09-10T19:42:18.522Z,99712.38
2022-09-10T19:44:46.684Z,99709.81
2022-09-10T19:47:14.894Z,99697.75
2022-09-10T19:49:43.012Z,99704.25
2022-09-10T19:52:11.785Z,99700.22
2022-09-10T19:54:42.456Z,99695.72
2022-09-10T19:57:10.753Z,99687.81
2022-09-10T19:59:39.924Z,99680.78
2022-09-10T20:02:09.930Z,99686.97
2022-09-10T20:04:38.336Z,99678.19
2022-09-10T20:07:07.129Z,99691.78
2022-09-10T20:09:39.654Z,99692.34
2022-09-10T20:12:08.980Z,99686.44
2022-09-10T20:14:38.046Z,99672.34
2022-09-10T20:17:06.629Z,99667.00
2022-09-10T20:19:34.883Z,99674.13
2022-09-10T20:22:03.380Z,99670.72
2022-09-10T20:24:32.165Z,99676.00
2022-09-10T20:27:00.636Z,99673.13
2022-09-10T20:29:30.265Z,99667.63
2022-09-10T20:31:58.499Z,99675.34
2022-09-10T20:34:29.778Z,99668.38
2022-09-10T20:37:00.683Z,99671.09
2022-09-10T20:39:28.897Z,99673.84
2022-09-10T20:41:57.447Z,99670.41
2022-09-10T20:44:26.642Z,99667.06
2022-09-10T20:46:54.973Z,99677.59
2022-09-10T20:49:23.237Z,99665.22
2022-09-10T20:51:51.661Z,99649.56
2022-09-10T20:54:20.067Z,99655.44
2022-09-10T20:56:48.732Z,99658.06
2022-09-10T20:59:17.505Z,99647.63
2022-09-10T21:01:46.720Z,99649.50
2022-09-10T21:04:15.770Z,99653.22
2022-09-10T21:06:44.136Z,99650.47
2022-09-10T21:09:13.025Z,99646.91
2022-09-10T21:11:41.275Z,99651.34
2022-09-10T21:14:09.449Z,99653.22
2022-09-10T21:16:39.452Z,99646.09
2022-09-10T21:19:10.277Z,99639.78
2022-09-10T21:21:40.053Z,99637.88
2022-09-10T21:24:09.522Z,99635.03
2022-09-10T21:26:39.843Z,99643.81
2022-09-10T21:29:11.392Z,99645.59
2022-09-10T21:31:39.774Z,99640.25
2022-09-10T21:34:08.082Z,99645.28
2022-09-10T21:36:37.749Z,99648.53
2022-09-10T21:39:12.782Z,99650.13
2022-09-10T21:41:43.234Z,99650.75
2022-09-10T21:44:14.732Z,99648.88
2022-09-10T21:46:44.033Z,99640.97
2022-09-10T21:49:13.153Z,99643.63
2022-09-10T21:51:42.131Z,99643.88
2022-09-10T21:54:19.224Z,99634.31
2022-09-10T21:56:48.224Z,99632.56
2022-09-10T21:59:16.771Z,99628.97
2022-09-10T22:01:46.482Z,99629.66
2022-09-10T22:04:19.948Z,99623.56
2022-09-10T22:06:50.813Z,99627.03
2022-09-10T22:09:20.602Z,99623.56
2022-09-10T22:11:52.040Z,99625.31
2022-09-10T22:14:22.243Z,99627.19
2022-09-10T22:16:51.154Z,99615.88
2022-09-10T22:19:21.301Z,99624.53
2022-09-10T22:21:49.541Z,99618.34
2022-09-10T22:24:20.636Z,99621.91
2022-09-10T22:26:49.194Z,99620.06
2022-09-10T22:29:18.492Z,99616.56
2022-09-10T22:31:47.663Z,99607.81
2022-09-10T22:34:16.834Z,99606.88
2022-09-10T22:36:46.681Z,99602.28
2022-09-10T22:39:16.692Z,99587.31
2022-09-10T22:41:45.337Z,99588.94
2022-09-10T22:44:13.777Z,99579.16
2022-09-10T22:46:42.247Z,99580.97
2022-09-10T22:49:10.785Z,99581.53
2022-09-10T22:51:41.565Z,99570.91
2022-09-10T22:54:11.450Z,99576.03
2022-09-10T22:56:40.624Z,99573.38
2022-09-10T22:59:12.171Z,99565.38
2022-09-10T23:01:41.282Z,99566.06
2022-09-10T23:04:10.686Z,99564.13
2022-09-10T23:06:39.516Z,99560.53
2022-09-10T23:09:18.256Z,99565.63
2022-09-10T23:11:46.839Z,99557.47
2022-09-10T23:14:20.125Z,99556.38
2022-09-10T23:16:50.067Z,99561.56
2022-09-10T23:19:25.736Z,99552.53
2022-09-10T23:21:55.833Z,99557.72
2022-09-10T23:24:25.706Z,99558.38
2022-09-10T23:26:54.760Z,99553.88
2022-09-10T23:29:24.275Z,99554.56
2022-09-10T23:31:55.859Z,99545.63
2022-09-10T23:34:24.958Z,99549.13
2022-09-10T23:36:53.552Z,99545.50
2022-09-10T23:39:23.147Z,99533.28
2022-09-10T23:41:52.982Z,99536.94
2022-09-10T23:44:21.708Z,99529.19
2022-09-10T23:46:50.097Z,99527.69
2022-09-10T23:49:18.551Z,99518.31
2022-09-10T23:51:47.245Z,99519.53
2022-09-10T23:54:16.047Z,99512.81
2022-09-10T23:56:44.961Z,99508.63
2022-09-10T23:59:13.259Z,99502.53
